Tabas, Iran
Current Conditions -  °F | °C
As of 3:00 AM on Wednesday 26 Nov 2014 (Local Time) from OIMB Reporting Station
Scattered Clouds Scattered Clouds  
Wind Chill: 45°   Ceiling: Unl
Heat Index: 48°   Visibility: 6mi
Dew Point: 37°   Wind: 7mph
Humidity: 66%   Direction: 90°E
Pressure: 29.97"   Gusts: NA
Location:  33.59°N, 56.92°E
Report Text: OIMB 260000Z 09006KT 9999 FEW035 SCT200 09/03 Q1015
Loading
Personal Weather Stations






























Interactive Weather Map New forecast layout! Learn more

10-Day Weather Forecast

Advertisements
Track Severe Weather on mobile